Anderson Grade Atmospheric Data: 09/14/2021 Summary  Detailed Graphs  Station List

  Temperature     Wind Precipitation Visibility
Timestamp Air Wet
Bulb
Dew-
point
24-hr
Max
24-hr
Min
Relative
Humidity
Atmospheric
Pressure
Avg
Speed
Avg
Dir
Spot
Speed
Spot
Dir
Max
Speed
Max
Dir
  Rate Situation Start End 1 hr 3 hr 6 hr 12 hr 24 hr   Situation
Date Time °F °F °F °F °F % in Hg mph ° mph ° mph ° Y/N in/hr text Date Time Date Time in in in in in mi text
09/14/2021 12:01 AM 63.14 50.54 38.30 85.82 60.26 39.0 Not Reported 4.03 N 5.14 N 4.92 N No 0.000 No Precipitation 01/01/1970 12:00 AM 01/01/1970 12:00 AM 0.000 0.000 0.000 0.000 0.000 Not Reported Not Reported
09/14/2021 12:16 AM 62.60 50.36 38.12 85.82 60.26 40.0 Not Reported 1.79 N 2.24 N 3.58 NW No 0.000 No Precipitation 01/01/1970 12:00 AM 01/01/1970 12:00 AM 0.000 0.000 0.000 0.000 0.000 Not Reported Not Reported
09/14/2021 12:31 AM 61.16 49.82 38.12 85.82 60.26 41.0 Not Reported 2.01 N 2.46 N 3.80 N No 0.000 No Precipitation 01/01/1970 12:00 AM 01/01/1970 12:00 AM 0.000 0.000 0.000 0.000 0.000 Not Reported Not Reported
09/14/2021 12:46 AM 61.52 49.82 38.12 85.82 59.36 41.0 Not Reported 2.01 NW 2.01 NW 2.68 N No 0.000 No Precipitation 01/01/1970 12:00 AM 01/01/1970 12:00 AM 0.000 0.000 0.000 0.000 0.000 Not Reported Not Reported
09/14/2021 01:01 AM 60.62 49.28 37.94 85.82 59.36 43.0 Not Reported 3.13 N 3.80 N 4.03 N No 0.000 No Precipitation 01/01/1970 12:00 AM 01/01/1970 12:00 AM 0.000 0.000 0.000 0.000 0.000 Not Reported Not Reported
09/14/2021 01:16 AM 59.72 48.92 38.12 85.82 59.36 44.0 Not Reported 3.58 N 3.13 N 4.92 N No 0.000 No Precipitation 01/01/1970 12:00 AM 01/01/1970 12:00 AM 0.000 0.000 0.000 0.000 0.000 Not Reported Not Reported
09/14/2021 01:31 AM 59.36 48.92 38.30 85.82 59.18 45.0 Not Reported 2.91 N 3.36 N 3.36 N No 0.000 No Precipitation 01/01/1970 12:00 AM 01/01/1970 12:00 AM 0.000 0.000 0.000 0.000 0.000 Not Reported Not Reported
09/14/2021 01:46 AM 57.92 48.20 38.12 85.82 57.92 47.0 Not Reported 1.34 N 0.67 N 2.68 N No 0.000 No Precipitation 01/01/1970 12:00 AM 01/01/1970 12:00 AM 0.000 0.000 0.000 0.000 0.000 Not Reported Not Reported
09/14/2021 02:01 AM 59.00 48.56 38.30 85.82 57.74 45.0 Not Reported 1.57 N 2.01 N 2.91 N No 0.000 No Precipitation 01/01/1970 12:00 AM 01/01/1970 12:00 AM 0.000 0.000 0.000 0.000 0.000 Not Reported Not Reported
09/14/2021 02:16 AM 57.20 48.02 38.12 85.82 56.84 48.0 Not Reported 1.57 NW 2.01 NW 3.80 N No 0.000 No Precipitation 01/01/1970 12:00 AM 01/01/1970 12:00 AM 0.000 0.000 0.000 0.000 0.000 Not Reported Not Reported
09/14/2021 02:31 AM 58.46 48.38 37.94 85.82 56.84 46.0 Not Reported 2.68 N 2.91 N 4.25 NW No 0.000 No Precipitation 01/01/1970 12:00 AM 01/01/1970 12:00 AM 0.000 0.000 0.000 0.000 0.000 Not Reported Not Reported
09/14/2021 02:46 AM 58.82 48.38 37.94 85.82 56.84 45.0 Not Reported 1.79 NW 2.91 NW 2.91 NW No 0.000 No Precipitation 01/01/1970 12:00 AM 01/01/1970 12:00 AM 0.000 0.000 0.000 0.000 0.000 Not Reported Not Reported
09/14/2021 03:01 AM 59.54 48.74 37.94 85.82 56.84 44.0 Not Reported 0.67 N 0.89 N 2.68 N No 0.000 No Precipitation 01/01/1970 12:00 AM 01/01/1970 12:00 AM 0.000 0.000 0.000 0.000 0.000 Not Reported Not Reported
09/14/2021 03:16 AM 58.10 48.20 38.30 85.82 56.84 47.0 Not Reported 0.00 NW 0.00 NW 1.79 NW No 0.000 No Precipitation 01/01/1970 12:00 AM 01/01/1970 12:00 AM 0.000 0.000 0.000 0.000 0.000 Not Reported Not Reported
09/14/2021 03:31 AM 58.82 48.38 38.12 85.82 56.84 46.0 Not Reported 1.12 N 1.57 N 1.34 N No 0.000 No Precipitation 01/01/1970 12:00 AM 01/01/1970 12:00 AM 0.000 0.000 0.000 0.000 0.000 Not Reported Not Reported
09/14/2021 03:46 AM 58.10 48.20 38.12 85.82 56.84 47.0 Not Reported 1.79 N 2.01 NW 2.68 NW No 0.000 No Precipitation 01/01/1970 12:00 AM 01/01/1970 12:00 AM 0.000 0.000 0.000 0.000 0.000 Not Reported Not Reported
09/14/2021 04:01 AM 57.56 47.84 37.94 85.82 56.84 48.0 Not Reported 0.89 N 0.22 NW 2.24 N No 0.000 No Precipitation 01/01/1970 12:00 AM 01/01/1970 12:00 AM 0.000 0.000 0.000 0.000 0.000 Not Reported Not Reported
09/14/2021 04:16 AM 56.30 47.30 37.76 85.82 56.30 49.0 Not Reported 1.34 N 1.34 N 2.46 N No 0.000 No Precipitation 01/01/1970 12:00 AM 01/01/1970 12:00 AM 0.000 0.000 0.000 0.000 0.000 Not Reported Not Reported
09/14/2021 04:31 AM 55.40 46.76 38.12 85.82 55.04 52.0 Not Reported 0.67 N 0.89 NW 2.68 N No 0.000 No Precipitation 01/01/1970 12:00 AM 01/01/1970 12:00 AM 0.000 0.000 0.000 0.000 0.000 Not Reported Not Reported
09/14/2021 04:46 AM 56.84 47.48 37.94 85.82 54.50 49.0 Not Reported 4.25 NW 2.91 NW 5.14 NW No 0.000 No Precipitation 01/01/1970 12:00 AM 01/01/1970 12:00 AM 0.000 0.000 0.000 0.000 0.000 Not Reported Not Reported
09/14/2021 05:01 AM 55.76 46.94 37.94 85.82 54.50 50.0 Not Reported 2.68 N 2.01 N 4.03 N No 0.000 No Precipitation 01/01/1970 12:00 AM 01/01/1970 12:00 AM 0.000 0.000 0.000 0.000 0.000 Not Reported Not Reported
09/14/2021 05:16 AM 55.22 46.76 37.94 85.82 54.50 52.0 Not Reported 2.01 NW 0.45 NW 2.68 N No 0.000 No Precipitation 01/01/1970 12:00 AM 01/01/1970 12:00 AM 0.000 0.000 0.000 0.000 0.000 Not Reported Not Reported
09/14/2021 05:31 AM 56.30 47.12 37.58 85.82 54.50 49.0 Not Reported 0.67 NW 0.45 SE 2.01 NW No 0.000 No Precipitation 01/01/1970 12:00 AM 01/01/1970 12:00 AM 0.000 0.000 0.000 0.000 0.000 Not Reported Not Reported
09/14/2021 05:46 AM 55.58 46.76 37.58 85.82 54.50 50.0 Not Reported 0.00 W 0.00 NW 0.89 W No 0.000 No Precipitation 01/01/1970 12:00 AM 01/01/1970 12:00 AM 0.000 0.000 0.000 0.000 0.000 Not Reported Not Reported
09/14/2021 06:01 AM 55.04 46.40 37.22 85.82 54.50 50.0 Not Reported 0.00 S 0.00 SE 1.34 SE No 0.000 No Precipitation 01/01/1970 12:00 AM 01/01/1970 12:00 AM 0.000 0.000 0.000 0.000 0.000 Not Reported Not Reported
09/14/2021 06:16 AM 54.68 46.40 37.22 85.82 54.50 51.0 Not Reported 0.00 NE 0.00 NE 1.79 S No 0.000 No Precipitation 01/01/1970 12:00 AM 01/01/1970 12:00 AM 0.000 0.000 0.000 0.000 0.000 Not Reported Not Reported
09/14/2021 06:31 AM 56.48 46.94 36.14 85.82 54.50 45.0 Not Reported 0.89 NE 0.00 NW 1.34 NE No 0.000 No Precipitation 01/01/1970 12:00 AM 01/01/1970 12:00 AM 0.000 0.000 0.000 0.000 0.000 Not Reported Not Reported
09/14/2021 06:46 AM 56.66 46.04 34.16 85.82 54.50 42.0 Not Reported 0.00 N 0.00 N 0.89 SW No 0.000 No Precipitation 01/01/1970 12:00 AM 01/01/1970 12:00 AM 0.000 0.000 0.000 0.000 0.000 Not Reported Not Reported
09/14/2021 07:01 AM 54.86 45.50 35.24 85.82 54.50 47.0 Not Reported 1.79 NE 2.68 N 2.24 NE No 0.000 No Precipitation 01/01/1970 12:00 AM 01/01/1970 12:00 AM 0.000 0.000 0.000 0.000 0.000 Not Reported Not Reported
09/14/2021 07:16 AM 53.78 45.50 36.14 85.82 53.42 51.0 Not Reported 1.12 N 2.24 NW 3.58 N No 0.000 No Precipitation 01/01/1970 12:00 AM 01/01/1970 12:00 AM 0.000 0.000 0.000 0.000 0.000 Not Reported Not Reported
09/14/2021 07:31 AM 54.32 45.50 35.60 85.82 53.06 48.0 Not Reported 0.00 N 0.89 N 2.01 N No 0.000 No Precipitation 01/01/1970 12:00 AM 01/01/1970 12:00 AM 0.000 0.000 0.000 0.000 0.000 Not Reported Not Reported
09/14/2021 07:46 AM 54.86 45.68 35.42 85.82 53.06 47.0 Not Reported 0.00 N 0.00 N 0.00 N No 0.000 No Precipitation 01/01/1970 12:00 AM 01/01/1970 12:00 AM 0.000 0.000 0.000 0.000 0.000 Not Reported Not Reported
09/14/2021 08:01 AM 55.40 45.86 35.24 85.82 53.06 46.0 Not Reported 0.00 N 0.00 N 0.67 N No 0.000 No Precipitation 01/01/1970 12:00 AM 01/01/1970 12:00 AM 0.000 0.000 0.000 0.000 0.000 Not Reported Not Reported
09/14/2021 08:16 AM 55.94 46.22 35.78 85.82 53.06 45.0 Not Reported 1.34 N 1.34 N 2.24 N No 0.000 No Precipitation 01/01/1970 12:00 AM 01/01/1970 12:00 AM 0.000 0.000 0.000 0.000 0.000 Not Reported Not Reported
09/14/2021 08:31 AM 58.46 47.12 35.42 85.82 53.06 42.0 Not Reported 2.24 N 2.46 N 3.58 NE No 0.000 No Precipitation 01/01/1970 12:00 AM 01/01/1970 12:00 AM 0.000 0.000 0.000 0.000 0.000 Not Reported Not Reported
09/14/2021 08:46 AM 58.64 47.12 34.34 85.82 53.06 39.0 Not Reported 3.36 N 3.58 N 3.80 N No 0.000 No Precipitation 01/01/1970 12:00 AM 01/01/1970 12:00 AM 0.000 0.000 0.000 0.000 0.000 Not Reported Not Reported
09/14/2021 09:01 AM 60.26 47.84 33.80 85.82 53.06 36.0 Not Reported 2.24 NW 2.68 N 4.70 NE No 0.000 No Precipitation 01/01/1970 12:00 AM 01/01/1970 12:00 AM 0.000 0.000 0.000 0.000 0.000 Not Reported Not Reported
09/14/2021 09:16 AM 62.06 48.74 34.34 85.82 53.06 34.0 Not Reported 3.36 N 1.34 N 4.25 N No 0.000 No Precipitation 01/01/1970 12:00 AM 01/01/1970 12:00 AM 0.000 0.000 0.000 0.000 0.000 Not Reported Not Reported
09/14/2021 09:31 AM 63.68 51.08 39.02 85.82 53.06 39.0 Not Reported 2.91 S 3.58 SE 4.47 S No 0.000 No Precipitation 01/01/1970 12:00 AM 01/01/1970 12:00 AM 0.000 0.000 0.000 0.000 0.000 Not Reported Not Reported
09/14/2021 09:46 AM 64.04 51.08 38.84 85.82 53.06 39.0 Not Reported 2.91 SE 3.13 S 3.80 S No 0.000 No Precipitation 01/01/1970 12:00 AM 01/01/1970 12:00 AM 0.000 0.000 0.000 0.000 0.000 Not Reported Not Reported
09/14/2021 10:01 AM 64.76 51.98 40.10 85.82 53.06 40.0 Not Reported 2.68 SE 3.36 S 5.14 SE No 0.000 No Precipitation 01/01/1970 12:00 AM 01/01/1970 12:00 AM 0.000 0.000 0.000 0.000 0.000 Not Reported Not Reported
09/14/2021 10:16 AM 65.66 52.88 41.18 85.82 53.06 40.0 Not Reported 2.91 SE 1.79 S 4.03 S No 0.000 No Precipitation 01/01/1970 12:00 AM 01/01/1970 12:00 AM 0.000 0.000 0.000 0.000 0.000 Not Reported Not Reported
09/14/2021 10:31 AM 68.54 50.72 31.82 85.82 53.06 25.0 Not Reported 3.13 N 3.58 NW 3.58 NW No 0.000 No Precipitation 01/01/1970 12:00 AM 01/01/1970 12:00 AM 0.000 0.000 0.000 0.000 0.000 Not Reported Not Reported
09/14/2021 10:46 AM 69.26 50.90 31.28 85.82 53.06 24.0 Not Reported 2.68 N 2.24 N 3.80 NE No 0.000 No Precipitation 01/01/1970 12:00 AM 01/01/1970 12:00 AM 0.000 0.000 0.000 0.000 0.000 Not Reported Not Reported
09/14/2021 11:01 AM 71.24 53.96 37.58 85.82 53.06 28.0 Not Reported 3.58 S 0.89 N 4.92 S No 0.000 No Precipitation 01/01/1970 12:00 AM 01/01/1970 12:00 AM 0.000 0.000 0.000 0.000 0.000 Not Reported Not Reported
09/14/2021 11:16 AM 72.14 54.14 36.86 85.82 53.06 27.0 Not Reported 2.24 SE 4.92 S 5.37 S No 0.000 No Precipitation 01/01/1970 12:00 AM 01/01/1970 12:00 AM 0.000 0.000 0.000 0.000 0.000 Not Reported Not Reported
09/14/2021 11:31 AM 74.84 55.04 36.32 85.82 53.06 24.0 Not Reported 2.91 S 3.80 S 4.70 S No 0.000 No Precipitation 01/01/1970 12:00 AM 01/01/1970 12:00 AM 0.000 0.000 0.000 0.000 0.000 Not Reported Not Reported
09/14/2021 11:46 AM 74.84 55.22 37.22 85.82 53.06 25.0 Not Reported 5.59 S 6.71 S 8.28 S No 0.000 No Precipitation 01/01/1970 12:00 AM 01/01/1970 12:00 AM 0.000 0.000 0.000 0.000 0.000 Not Reported Not Reported
09/14/2021 12:01 PM 74.30 55.22 37.58 85.82 53.06 26.0 Not Reported 6.04 SE 4.92 S 10.07 S No 0.000 No Precipitation 01/01/1970 12:00 AM 01/01/1970 12:00 AM 0.000 0.000 0.000 0.000 0.000 Not Reported Not Reported
09/14/2021 12:16 PM 75.38 55.40 37.04 85.82 53.06 25.0 Not Reported 6.26 S 4.47 SE 8.05 SE No 0.000 No Precipitation 01/01/1970 12:00 AM 01/01/1970 12:00 AM 0.000 0.000 0.000 0.000 0.000 Not Reported Not Reported
09/14/2021 12:31 PM 76.28 55.94 37.40 85.82 53.06 24.0 Not Reported 2.24 S 5.82 SE 7.61 SE No 0.000 No Precipitation 01/01/1970 12:00 AM 01/01/1970 12:00 AM 0.000 0.000 0.000 0.000 0.000 Not Reported Not Reported
09/14/2021 12:46 PM 77.18 55.94 36.50 85.82 53.06 22.0 Not Reported 4.03 SE 4.47 S 6.71 SE No 0.000 No Precipitation 01/01/1970 12:00 AM 01/01/1970 12:00 AM 0.000 0.000 0.000 0.000 0.000 Not Reported Not Reported
09/14/2021 01:01 PM 79.52 56.12 33.80 85.82 53.06 18.0 Not Reported 2.68 S 1.57 S 5.82 SE No 0.000 No Precipitation 01/01/1970 12:00 AM 01/01/1970 12:00 AM 0.000 0.000 0.000 0.000 0.000 Not Reported Not Reported
09/14/2021 01:16 PM 79.52 56.84 36.14 85.82 53.06 20.0 Not Reported 3.80 E 4.92 SE 5.82 SE No 0.000 No Precipitation 01/01/1970 12:00 AM 01/01/1970 12:00 AM 0.000 0.000 0.000 0.000 0.000 Not Reported Not Reported
09/14/2021 01:31 PM 81.14 57.02 35.24 85.82 53.06 19.0 Not Reported 4.92 S 6.93 SE 7.61 SE No 0.000 No Precipitation 01/01/1970 12:00 AM 01/01/1970 12:00 AM 0.000 0.000 0.000 0.000 0.000 Not Reported Not Reported
09/14/2021 01:46 PM 81.50 56.84 33.44 85.82 53.06 17.0 Not Reported 5.37 SE 4.92 SE 6.26 S No 0.000 No Precipitation 01/01/1970 12:00 AM 01/01/1970 12:00 AM 0.000 0.000 0.000 0.000 0.000 Not Reported Not Reported
09/14/2021 02:01 PM 82.76 57.20 33.26 85.82 53.06 16.0 Not Reported 5.14 SE 7.16 SE 6.71 SE No 0.000 No Precipitation 01/01/1970 12:00 AM 01/01/1970 12:00 AM 0.000 0.000 0.000 0.000 0.000 Not Reported Not Reported
09/14/2021 02:16 PM 83.84 57.38 32.72 85.82 53.06 15.0 Not Reported 7.16 S 4.92 S 8.50 S No 0.000 No Precipitation 01/01/1970 12:00 AM 01/01/1970 12:00 AM 0.000 0.000 0.000 0.000 0.000 Not Reported Not Reported
09/14/2021 02:31 PM 82.40 57.02 32.90 85.82 53.06 16.0 Not Reported 7.16 SE 6.49 SE 8.72 SE No 0.000 No Precipitation 01/01/1970 12:00 AM 01/01/1970 12:00 AM 0.000 0.000 0.000 0.000 0.000 Not Reported Not Reported
09/14/2021 02:46 PM 84.74 57.56 33.26 85.82 53.06 16.0 Not Reported 3.36 S 7.38 SE 8.50 SE No 0.000 No Precipitation 01/01/1970 12:00 AM 01/01/1970 12:00 AM 0.000 0.000 0.000 0.000 0.000 Not Reported Not Reported
09/14/2021 03:01 PM 84.92 57.74 32.36 85.82 53.06 15.0 Not Reported 5.14 SE 5.37 SE 7.16 SE No 0.000 No Precipitation 01/01/1970 12:00 AM 01/01/1970 12:00 AM 0.000 0.000 0.000 0.000 0.000 Not Reported Not Reported
09/14/2021 03:16 PM 85.64 57.74 30.02 86.54 53.06 13.0 Not Reported 2.46 SW 1.79 S 8.28 S No 0.000 No Precipitation 01/01/1970 12:00 AM 01/01/1970 12:00 AM 0.000 0.000 0.000 0.000 0.000 Not Reported Not Reported
09/14/2021 03:31 PM 86.00 58.10 31.46 86.54 53.06 14.0 Not Reported 4.70 S 3.58 S 6.93 SE No 0.000 No Precipitation 01/01/1970 12:00 AM 01/01/1970 12:00 AM 0.000 0.000 0.000 0.000 0.000 Not Reported Not Reported
09/14/2021 03:46 PM 85.46 57.02 28.58 86.54 53.06 12.0 Not Reported 2.68 E 1.34 N 5.82 SE No 0.000 No Precipitation 01/01/1970 12:00 AM 01/01/1970 12:00 AM 0.000 0.000 0.000 0.000 0.000 Not Reported Not Reported
09/14/2021 04:01 PM 86.18 57.74 29.66 86.90 53.06 12.0 Not Reported 7.38 S 7.16 SE 9.62 S No 0.000 No Precipitation 01/01/1970 12:00 AM 01/01/1970 12:00 AM 0.000 0.000 0.000 0.000 0.000 Not Reported Not Reported
09/14/2021 04:16 PM 86.72 57.92 30.20 86.90 53.06 13.0 Not Reported 4.25 S 6.04 S 8.50 SE No 0.000 No Precipitation 01/01/1970 12:00 AM 01/01/1970 12:00 AM 0.000 0.000 0.000 0.000 0.000 Not Reported Not Reported
09/14/2021 04:31 PM 86.18 57.74 29.48 86.90 53.06 12.0 Not Reported 5.59 S 6.49 S 8.50 S No 0.000 No Precipitation 01/01/1970 12:00 AM 01/01/1970 12:00 AM 0.000 0.000 0.000 0.000 0.000 Not Reported Not Reported
09/14/2021 04:46 PM 86.00 57.38 29.12 86.90 53.06 12.0 Not Reported 6.71 S 7.61 SE 8.95 S No 0.000 No Precipitation 01/01/1970 12:00 AM 01/01/1970 12:00 AM 0.000 0.000 0.000 0.000 0.000 Not Reported Not Reported
09/14/2021 05:01 PM 85.82 57.20 28.22 86.90 53.06 12.0 Not Reported 6.26 S 2.91 SE 7.83 S No 0.000 No Precipitation 01/01/1970 12:00 AM 01/01/1970 12:00 AM 0.000 0.000 0.000 0.000 0.000 Not Reported Not Reported
09/14/2021 05:16 PM 85.64 57.20 28.76 86.90 53.06 12.0 Not Reported 4.25 S 5.14 S 7.61 S No 0.000 No Precipitation 01/01/1970 12:00 AM 01/01/1970 12:00 AM 0.000 0.000 0.000 0.000 0.000 Not Reported Not Reported
09/14/2021 05:31 PM 83.66 56.30 28.04 86.90 53.06 13.0 Not Reported 7.83 S 8.28 S 8.05 S No 0.000 No Precipitation 01/01/1970 12:00 AM 01/01/1970 12:00 AM 0.000 0.000 0.000 0.000 0.000 Not Reported Not Reported
09/14/2021 05:46 PM 83.12 56.12 28.04 86.90 53.06 13.0 Not Reported 4.47 S 3.36 S 5.14 S No 0.000 No Precipitation 01/01/1970 12:00 AM 01/01/1970 12:00 AM 0.000 0.000 0.000 0.000 0.000 Not Reported Not Reported
09/14/2021 06:01 PM 82.40 55.40 26.60 86.90 53.06 12.0 Not Reported 4.70 S 5.59 S 6.93 S No 0.000 No Precipitation 01/01/1970 12:00 AM 01/01/1970 12:00 AM 0.000 0.000 0.000 0.000 0.000 Not Reported Not Reported
09/14/2021 06:16 PM 82.22 55.58 27.68 86.90 53.06 13.0 Not Reported 2.91 S 3.80 S 4.92 S No 0.000 No Precipitation 01/01/1970 12:00 AM 01/01/1970 12:00 AM 0.000 0.000 0.000 0.000 0.000 Not Reported Not Reported
09/14/2021 06:31 PM 80.78 55.22 28.22 86.90 53.06 14.0 Not Reported 1.57 N 0.45 N 2.46 N No 0.000 No Precipitation 01/01/1970 12:00 AM 01/01/1970 12:00 AM 0.000 0.000 0.000 0.000 0.000 Not Reported Not Reported
09/14/2021 06:46 PM 82.04 55.58 28.22 86.90 53.06 13.0 Not Reported 3.13 N 4.25 NE 5.82 N No 0.000 No Precipitation 01/01/1970 12:00 AM 01/01/1970 12:00 AM 0.000 0.000 0.000 0.000 0.000 Not Reported Not Reported
09/14/2021 07:01 PM 81.32 55.04 26.78 86.90 53.06 13.0 Not Reported 8.05 N 3.58 N 9.62 NW No 0.000 No Precipitation 01/01/1970 12:00 AM 01/01/1970 12:00 AM 0.000 0.000 0.000 0.000 0.000 Not Reported Not Reported
09/14/2021 07:16 PM 80.78 54.32 24.62 86.90 53.06 12.0 Not Reported 6.49 N 5.14 N 8.72 N No 0.000 No Precipitation 01/01/1970 12:00 AM 01/01/1970 12:00 AM 0.000 0.000 0.000 0.000 0.000 Not Reported Not Reported
09/14/2021 07:31 PM 80.60 53.78 22.10 86.90 53.06 11.0 Not Reported 6.26 NE 9.40 NE 8.28 N No 0.000 No Precipitation 01/01/1970 12:00 AM 01/01/1970 12:00 AM 0.000 0.000 0.000 0.000 0.000 Not Reported Not Reported
09/14/2021 07:46 PM 79.88 53.24 21.56 86.90 53.06 11.0 Not Reported 7.83 NE 2.46 N 11.18 N No 0.000 No Precipitation 01/01/1970 12:00 AM 01/01/1970 12:00 AM 0.000 0.000 0.000 0.000 0.000 Not Reported Not Reported
09/14/2021 08:01 PM 78.98 53.06 21.56 86.90 53.06 11.0 Not Reported 8.05 NE 7.61 NW 10.07 NE No 0.000 No Precipitation 01/01/1970 12:00 AM 01/01/1970 12:00 AM 0.000 0.000 0.000 0.000 0.000 Not Reported Not Reported
09/14/2021 08:16 PM 78.62 53.06 22.82 86.90 53.06 12.0 Not Reported 4.92 NE 4.47 N 6.93 N No 0.000 No Precipitation 01/01/1970 12:00 AM 01/01/1970 12:00 AM 0.000 0.000 0.000 0.000 0.000 Not Reported Not Reported
09/14/2021 08:31 PM 77.18 52.70 24.08 86.90 53.06 13.0 Not Reported 4.92 N 8.05 N 6.71 NE No 0.000 No Precipitation 01/01/1970 12:00 AM 01/01/1970 12:00 AM 0.000 0.000 0.000 0.000 0.000 Not Reported Not Reported
09/14/2021 08:46 PM 77.18 52.88 24.26 86.90 53.06 13.0 Not Reported 4.92 N 5.82 N 8.72 N No 0.000 No Precipitation 01/01/1970 12:00 AM 01/01/1970 12:00 AM 0.000 0.000 0.000 0.000 0.000 Not Reported Not Reported
09/14/2021 09:01 PM 76.64 53.06 27.32 86.90 53.06 16.0 Not Reported 6.93 N 6.49 NE 8.72 N No 0.000 No Precipitation 01/01/1970 12:00 AM 01/01/1970 12:00 AM 0.000 0.000 0.000 0.000 0.000 Not Reported Not Reported
09/14/2021 09:16 PM 76.10 53.24 28.76 86.90 53.06 17.0 Not Reported 8.72 N 6.04 N 10.74 N No 0.000 No Precipitation 01/01/1970 12:00 AM 01/01/1970 12:00 AM 0.000 0.000 0.000 0.000 0.000 Not Reported Not Reported
09/14/2021 09:31 PM 75.20 52.88 29.48 86.90 53.06 18.0 Not Reported 5.59 N 5.14 N 7.38 NE No 0.000 No Precipitation 01/01/1970 12:00 AM 01/01/1970 12:00 AM 0.000 0.000 0.000 0.000 0.000 Not Reported Not Reported
09/14/2021 09:46 PM 75.20 53.06 29.30 86.90 53.06 18.0 Not Reported 5.59 N 5.37 N 7.61 N No 0.000 No Precipitation 01/01/1970 12:00 AM 01/01/1970 12:00 AM 0.000 0.000 0.000 0.000 0.000 Not Reported Not Reported
09/14/2021 10:01 PM 73.94 52.52 29.12 86.90 53.06 18.0 Not Reported 5.37 N 7.61 NW 7.61 NE No 0.000 No Precipitation 01/01/1970 12:00 AM 01/01/1970 12:00 AM 0.000 0.000 0.000 0.000 0.000 Not Reported Not Reported
09/14/2021 10:16 PM 72.68 51.98 29.12 86.90 53.06 19.0 Not Reported 4.25 N 5.14 NW 6.04 NW No 0.000 No Precipitation 01/01/1970 12:00 AM 01/01/1970 12:00 AM 0.000 0.000 0.000 0.000 0.000 Not Reported Not Reported
09/14/2021 10:31 PM 71.60 51.44 29.48 86.90 53.06 20.0 Not Reported 2.91 N 2.91 N 6.04 N No 0.000 No Precipitation 01/01/1970 12:00 AM 01/01/1970 12:00 AM 0.000 0.000 0.000 0.000 0.000 Not Reported Not Reported
09/14/2021 10:46 PM 72.32 51.62 29.12 86.90 53.06 19.0 Not Reported 4.92 N 3.58 NW 7.16 NW No 0.000 No Precipitation 01/01/1970 12:00 AM 01/01/1970 12:00 AM 0.000 0.000 0.000 0.000 0.000 Not Reported Not Reported
09/14/2021 11:01 PM 72.14 51.62 28.94 86.90 53.06 19.0 Not Reported 4.03 N 3.58 N 9.17 N No 0.000 No Precipitation 01/01/1970 12:00 AM 01/01/1970 12:00 AM 0.000 0.000 0.000 0.000 0.000 Not Reported Not Reported
09/14/2021 11:16 PM 69.62 50.72 29.48 86.90 53.06 22.0 Not Reported 2.91 NW 4.25 N 5.37 N No 0.000 No Precipitation 01/01/1970 12:00 AM 01/01/1970 12:00 AM 0.000 0.000 0.000 0.000 0.000 Not Reported Not Reported
09/14/2021 11:31 PM 68.72 50.18 29.66 86.90 53.06 23.0 Not Reported 2.24 N 2.68 N 5.59 NW No 0.000 No Precipitation 01/01/1970 12:00 AM 01/01/1970 12:00 AM 0.000 0.000 0.000 0.000 0.000 Not Reported Not Reported
09/14/2021 11:46 PM 68.36 50.18 29.66 86.90 53.06 23.0 Not Reported 3.36 NW 4.25 NW 4.70 NW No 0.000 No Precipitation 01/01/1970 12:00 AM 01/01/1970 12:00 AM 0.000 0.000 0.000 0.000 0.000 Not Reported Not Reported